sensor_id;sensor_type;location;lat;lon;timestamp;temperature;humidity
47791;DHT22;33547;49.044;1.156;2022-09-09T00:00:55;21.40;57.20
47791;DHT22;33547;49.044;1.156;2022-09-09T00:04:00;21.30;57.20
47791;DHT22;33547;49.044;1.156;2022-09-09T00:09:24;21.30;57.40
47791;DHT22;33547;49.044;1.156;2022-09-09T00:11:58;21.30;57.40
47791;DHT22;33547;49.044;1.156;2022-09-09T00:17:14;21.30;57.40
47791;DHT22;33547;49.044;1.156;2022-09-09T00:19:59;21.30;57.40
47791;DHT22;33547;49.044;1.156;2022-09-09T00:22:30;21.20;57.50
47791;DHT22;33547;49.044;1.156;2022-09-09T00:25:12;21.20;57.60
47791;DHT22;33547;49.044;1.156;2022-09-09T00:27:45;21.20;57.50
47791;DHT22;33547;49.044;1.156;2022-09-09T00:32:44;21.20;57.60
47791;DHT22;33547;49.044;1.156;2022-09-09T00:35:18;21.20;57.60
47791;DHT22;33547;49.044;1.156;2022-09-09T00:37:49;21.20;57.60
47791;DHT22;33547;49.044;1.156;2022-09-09T00:40:33;21.20;57.70
47791;DHT22;33547;49.044;1.156;2022-09-09T00:43:28;21.10;57.60
47791;DHT22;33547;49.044;1.156;2022-09-09T00:49:18;21.10;57.70
47791;DHT22;33547;49.044;1.156;2022-09-09T00:54:50;21.10;57.70
47791;DHT22;33547;49.044;1.156;2022-09-09T00:57:32;21.00;57.80
47791;DHT22;33547;49.044;1.156;2022-09-09T01:11:57;20.90;57.90
47791;DHT22;33547;49.044;1.156;2022-09-09T01:14:48;20.90;58.00
47791;DHT22;33547;49.044;1.156;2022-09-09T01:17:44;20.90;58.00
47791;DHT22;33547;49.044;1.156;2022-09-09T01:28:57;20.80;58.10
47791;DHT22;33547;49.044;1.156;2022-09-09T01:31:30;20.90;58.10
47791;DHT22;33547;49.044;1.156;2022-09-09T01:33:58;20.80;58.20
47791;DHT22;33547;49.044;1.156;2022-09-09T01:37:03;20.80;58.10
47791;DHT22;33547;49.044;1.156;2022-09-09T01:39:33;20.80;58.20
47791;DHT22;33547;49.044;1.156;2022-09-09T01:42:01;20.80;58.20
47791;DHT22;33547;49.044;1.156;2022-09-09T01:44:28;20.80;58.30
47791;DHT22;33547;49.044;1.156;2022-09-09T01:46:55;20.70;58.20
47791;DHT22;33547;49.044;1.156;2022-09-09T01:49:40;20.70;58.30
47791;DHT22;33547;49.044;1.156;2022-09-09T02:04:50;20.70;58.50
47791;DHT22;33547;49.044;1.156;2022-09-09T02:07:38;20.60;58.40
47791;DHT22;33547;49.044;1.156;2022-09-09T02:10:21;20.60;58.60
47791;DHT22;33547;49.044;1.156;2022-09-09T02:13:16;20.60;58.60
47791;DHT22;33547;49.044;1.156;2022-09-09T02:15:56;20.60;58.60
47791;DHT22;33547;49.044;1.156;2022-09-09T02:18:45;20.60;58.60
47791;DHT22;33547;49.044;1.156;2022-09-09T02:21:16;20.60;58.60
47791;DHT22;33547;49.044;1.156;2022-09-09T02:23:43;20.50;58.70
47791;DHT22;33547;49.044;1.156;2022-09-09T02:26:12;20.50;58.80
47791;DHT22;33547;49.044;1.156;2022-09-09T02:28:40;20.50;58.80
47791;DHT22;33547;49.044;1.156;2022-09-09T02:31:07;20.50;58.70
47791;DHT22;33547;49.044;1.156;2022-09-09T02:33:55;20.50;58.80
47791;DHT22;33547;49.044;1.156;2022-09-09T02:36:26;20.50;58.80
47791;DHT22;33547;49.044;1.156;2022-09-09T02:38:55;20.50;58.70
47791;DHT22;33547;49.044;1.156;2022-09-09T02:41:34;20.50;58.70
47791;DHT22;33547;49.044;1.156;2022-09-09T02:44:15;20.50;58.80
47791;DHT22;33547;49.044;1.156;2022-09-09T02:57:57;20.50;58.90
47791;DHT22;33547;49.044;1.156;2022-09-09T03:00:26;20.50;58.80
47791;DHT22;33547;49.044;1.156;2022-09-09T03:02:53;20.50;58.80
47791;DHT22;33547;49.044;1.156;2022-09-09T03:05:22;20.50;59.00
47791;DHT22;33547;49.044;1.156;2022-09-09T03:07:48;20.40;58.80
47791;DHT22;33547;49.044;1.156;2022-09-09T03:10:16;20.40;58.90
47791;DHT22;33547;49.044;1.156;2022-09-09T03:12:42;20.40;58.90
47791;DHT22;33547;49.044;1.156;2022-09-09T03:15:09;20.40;58.90
47791;DHT22;33547;49.044;1.156;2022-09-09T03:17:35;20.40;58.90
47791;DHT22;33547;49.044;1.156;2022-09-09T03:20:03;20.40;58.90
47791;DHT22;33547;49.044;1.156;2022-09-09T03:22:29;20.40;58.90
47791;DHT22;33547;49.044;1.156;2022-09-09T03:24:55;20.40;58.90
47791;DHT22;33547;49.044;1.156;2022-09-09T03:27:21;20.30;59.00
47791;DHT22;33547;49.044;1.156;2022-09-09T03:29:47;20.30;58.90
47791;DHT22;33547;49.044;1.156;2022-09-09T03:32:15;20.30;59.00
47791;DHT22;33547;49.044;1.156;2022-09-09T03:34:43;20.40;59.00
47791;DHT22;33547;49.044;1.156;2022-09-09T03:37:09;20.40;59.10
47791;DHT22;33547;49.044;1.156;2022-09-09T03:39:34;20.30;59.10
47791;DHT22;33547;49.044;1.156;2022-09-09T03:42:00;20.40;59.00
47791;DHT22;33547;49.044;1.156;2022-09-09T03:44:29;20.30;59.10
47791;DHT22;33547;49.044;1.156;2022-09-09T03:46:55;20.30;59.10
47791;DHT22;33547;49.044;1.156;2022-09-09T03:49:21;20.30;59.10
47791;DHT22;33547;49.044;1.156;2022-09-09T03:51:48;20.30;59.00
47791;DHT22;33547;49.044;1.156;2022-09-09T03:54:14;20.30;59.10
47791;DHT22;33547;49.044;1.156;2022-09-09T03:56:39;20.30;59.10
47791;DHT22;33547;49.044;1.156;2022-09-09T03:59:07;20.30;59.10
47791;DHT22;33547;49.044;1.156;2022-09-09T04:01:34;20.30;59.10
47791;DHT22;33547;49.044;1.156;2022-09-09T04:04:00;20.30;59.20
47791;DHT22;33547;49.044;1.156;2022-09-09T04:06:28;20.30;59.20
47791;DHT22;33547;49.044;1.156;2022-09-09T04:08:55;20.30;59.20
47791;DHT22;33547;49.044;1.156;2022-09-09T04:11:21;20.30;59.10
47791;DHT22;33547;49.044;1.156;2022-09-09T04:13:47;20.20;59.10
47791;DHT22;33547;49.044;1.156;2022-09-09T04:16:13;20.20;59.10
47791;DHT22;33547;49.044;1.156;2022-09-09T04:18:40;20.20;59.10
47791;DHT22;33547;49.044;1.156;2022-09-09T04:21:06;20.20;59.20
47791;DHT22;33547;49.044;1.156;2022-09-09T04:23:34;20.20;59.10
47791;DHT22;33547;49.044;1.156;2022-09-09T04:26:01;20.20;59.30
47791;DHT22;33547;49.044;1.156;2022-09-09T04:28:30;20.20;59.40
47791;DHT22;33547;49.044;1.156;2022-09-09T04:31:04;20.20;59.20
47791;DHT22;33547;49.044;1.156;2022-09-09T04:33:31;20.20;59.40
47791;DHT22;33547;49.044;1.156;2022-09-09T04:35:57;20.20;59.20
47791;DHT22;33547;49.044;1.156;2022-09-09T04:38:23;20.20;59.20
47791;DHT22;33547;49.044;1.156;2022-09-09T04:40:50;20.20;59.30
47791;DHT22;33547;49.044;1.156;2022-09-09T04:43:17;20.20;59.20
47791;DHT22;33547;49.044;1.156;2022-09-09T04:45:47;20.20;59.30
47791;DHT22;33547;49.044;1.156;2022-09-09T04:48:13;20.20;59.30
47791;DHT22;33547;49.044;1.156;2022-09-09T04:50:40;20.20;59.20
47791;DHT22;33547;49.044;1.156;2022-09-09T04:53:06;20.20;59.20
47791;DHT22;33547;49.044;1.156;2022-09-09T04:55:33;20.20;59.30
47791;DHT22;33547;49.044;1.156;2022-09-09T04:58:07;20.20;59.20
47791;DHT22;33547;49.044;1.156;2022-09-09T05:00:37;20.20;59.30
47791;DHT22;33547;49.044;1.156;2022-09-09T05:03:04;20.20;59.20
47791;DHT22;33547;49.044;1.156;2022-09-09T05:05:31;20.20;59.30
47791;DHT22;33547;49.044;1.156;2022-09-09T05:08:06;20.20;59.20
47791;DHT22;33547;49.044;1.156;2022-09-09T05:10:36;20.20;59.30
47791;DHT22;33547;49.044;1.156;2022-09-09T05:13:03;20.20;59.20
47791;DHT22;33547;49.044;1.156;2022-09-09T05:15:30;20.20;59.10
47791;DHT22;33547;49.044;1.156;2022-09-09T05:17:58;20.30;59.10
47791;DHT22;33547;49.044;1.156;2022-09-09T05:20:26;20.30;59.10
47791;DHT22;33547;49.044;1.156;2022-09-09T05:22:55;20.20;59.10
47791;DHT22;33547;49.044;1.156;2022-09-09T05:25:22;20.30;59.10
47791;DHT22;33547;49.044;1.156;2022-09-09T05:27:51;20.30;59.00
47791;DHT22;33547;49.044;1.156;2022-09-09T05:30:19;20.30;59.10
47791;DHT22;33547;49.044;1.156;2022-09-09T05:32:45;20.30;61.70
47791;DHT22;33547;49.044;1.156;2022-09-09T05:35:11;20.40;61.20
47791;DHT22;33547;49.044;1.156;2022-09-09T05:37:38;20.30;61.00
47791;DHT22;33547;49.044;1.156;2022-09-09T05:40:05;20.30;61.40
47791;DHT22;33547;49.044;1.156;2022-09-09T05:42:31;20.30;61.60
47791;DHT22;33547;49.044;1.156;2022-09-09T05:44:57;20.30;61.90
47791;DHT22;33547;49.044;1.156;2022-09-09T05:47:23;20.30;61.90
47791;DHT22;33547;49.044;1.156;2022-09-09T05:49:49;20.30;61.70
47791;DHT22;33547;49.044;1.156;2022-09-09T05:52:15;20.30;61.60
47791;DHT22;33547;49.044;1.156;2022-09-09T05:54:41;20.30;61.90
47791;DHT22;33547;49.044;1.156;2022-09-09T05:57:08;20.30;61.70
47791;DHT22;33547;49.044;1.156;2022-09-09T05:59:34;20.20;61.70
47791;DHT22;33547;49.044;1.156;2022-09-09T06:01:59;20.20;61.70
47791;DHT22;33547;49.044;1.156;2022-09-09T06:04:25;20.20;63.70
47791;DHT22;33547;49.044;1.156;2022-09-09T06:06:51;20.20;64.90
47791;DHT22;33547;49.044;1.156;2022-09-09T06:09:17;20.30;64.80
47791;DHT22;33547;49.044;1.156;2022-09-09T06:11:43;20.30;64.80
47791;DHT22;33547;49.044;1.156;2022-09-09T06:14:09;20.30;65.00
47791;DHT22;33547;49.044;1.156;2022-09-09T06:16:35;20.40;64.90
47791;DHT22;33547;49.044;1.156;2022-09-09T06:19:03;20.40;64.90
47791;DHT22;33547;49.044;1.156;2022-09-09T06:21:31;20.40;64.90
47791;DHT22;33547;49.044;1.156;2022-09-09T06:23:59;20.40;64.80
47791;DHT22;33547;49.044;1.156;2022-09-09T06:26:34;20.50;65.10
47791;DHT22;33547;49.044;1.156;2022-09-09T06:29:04;20.50;64.80
47791;DHT22;33547;49.044;1.156;2022-09-09T06:31:32;20.60;65.00
47791;DHT22;33547;49.044;1.156;2022-09-09T06:33:59;20.70;64.90
47791;DHT22;33547;49.044;1.156;2022-09-09T06:36:28;20.90;64.50
47791;DHT22;33547;49.044;1.156;2022-09-09T06:38:59;21.10;64.00
47791;DHT22;33547;49.044;1.156;2022-09-09T06:41:27;21.20;63.80
47791;DHT22;33547;49.044;1.156;2022-09-09T06:43:54;21.30;63.50
47791;DHT22;33547;49.044;1.156;2022-09-09T06:46:25;21.70;62.90
47791;DHT22;33547;49.044;1.156;2022-09-09T06:48:58;22.20;61.70
47791;DHT22;33547;49.044;1.156;2022-09-09T06:51:35;22.50;61.00
47791;DHT22;33547;49.044;1.156;2022-09-09T06:54:07;22.70;60.50
47791;DHT22;33547;49.044;1.156;2022-09-09T06:56:36;22.70;60.40
47791;DHT22;33547;49.044;1.156;2022-09-09T06:59:06;23.00;59.70
47791;DHT22;33547;49.044;1.156;2022-09-09T07:01:39;23.70;58.90
47791;DHT22;33547;49.044;1.156;2022-09-09T07:04:06;24.00;58.20
47791;DHT22;33547;49.044;1.156;2022-09-09T07:06:36;24.00;58.20
47791;DHT22;33547;49.044;1.156;2022-09-09T07:09:05;24.10;58.70
47791;DHT22;33547;49.044;1.156;2022-09-09T07:11:45;24.10;58.40
47791;DHT22;33547;49.044;1.156;2022-09-09T07:14:12;24.00;58.70
47791;DHT22;33547;49.044;1.156;2022-09-09T07:16:43;24.00;58.80
47791;DHT22;33547;49.044;1.156;2022-09-09T07:19:10;24.20;58.60
47791;DHT22;33547;49.044;1.156;2022-09-09T07:21:37;24.80;57.00
47791;DHT22;33547;49.044;1.156;2022-09-09T07:24:02;25.20;55.80
47791;DHT22;33547;49.044;1.156;2022-09-09T07:26:32;25.70;53.90
47791;DHT22;33547;49.044;1.156;2022-09-09T07:28:59;26.00;52.80
47791;DHT22;33547;49.044;1.156;2022-09-09T07:31:27;26.20;51.90
47791;DHT22;33547;49.044;1.156;2022-09-09T07:33:58;26.30;51.50
47791;DHT22;33547;49.044;1.156;2022-09-09T07:36:28;26.40;51.10
47791;DHT22;33547;49.044;1.156;2022-09-09T07:39:00;26.70;50.40
47791;DHT22;33547;49.044;1.156;2022-09-09T07:41:42;27.30;49.60
47791;DHT22;33547;49.044;1.156;2022-09-09T07:44:21;27.70;48.20
47791;DHT22;33547;49.044;1.156;2022-09-09T07:46:48;28.10;47.60
47791;DHT22;33547;49.044;1.156;2022-09-09T07:49:14;28.00;47.20
47791;DHT22;33547;49.044;1.156;2022-09-09T07:51:43;28.00;47.70
47791;DHT22;33547;49.044;1.156;2022-09-09T07:54:13;27.80;47.30
47791;DHT22;33547;49.044;1.156;2022-09-09T07:56:41;27.50;47.70
47791;DHT22;33547;49.044;1.156;2022-09-09T07:59:07;27.30;48.20
47791;DHT22;33547;49.044;1.156;2022-09-09T08:01:37;27.10;48.50
47791;DHT22;33547;49.044;1.156;2022-09-09T08:04:15;27.00;48.90
47791;DHT22;33547;49.044;1.156;2022-09-09T08:06:48;26.90;49.00
47791;DHT22;33547;49.044;1.156;2022-09-09T08:09:32;26.90;49.00
47791;DHT22;33547;49.044;1.156;2022-09-09T08:11:59;26.80;49.10
47791;DHT22;33547;49.044;1.156;2022-09-09T08:14:25;26.80;49.20
47791;DHT22;33547;49.044;1.156;2022-09-09T08:16:51;26.80;49.30
47791;DHT22;33547;49.044;1.156;2022-09-09T08:19:19;26.80;49.40
47791;DHT22;33547;49.044;1.156;2022-09-09T08:21:45;26.70;49.50
47791;DHT22;33547;49.044;1.156;2022-09-09T08:24:12;26.60;49.70
47791;DHT22;33547;49.044;1.156;2022-09-09T08:26:42;26.50;49.80
47791;DHT22;33547;49.044;1.156;2022-09-09T08:29:10;26.50;50.00
47791;DHT22;33547;49.044;1.156;2022-09-09T08:31:45;26.50;50.10
47791;DHT22;33547;49.044;1.156;2022-09-09T08:34:15;26.50;50.00
47791;DHT22;33547;49.044;1.156;2022-09-09T08:36:44;26.70;50.00
47791;DHT22;33547;49.044;1.156;2022-09-09T08:39:13;26.90;49.50
47791;DHT22;33547;49.044;1.156;2022-09-09T08:53:15;29.10;45.40
47791;DHT22;33547;49.044;1.156;2022-09-09T09:11:53;30.10;43.00
47791;DHT22;33547;49.044;1.156;2022-09-09T09:14:24;30.00;43.30
47791;DHT22;33547;49.044;1.156;2022-09-09T09:16:57;29.90;43.30
47791;DHT22;33547;49.044;1.156;2022-09-09T09:19:24;29.70;43.70
47791;DHT22;33547;49.044;1.156;2022-09-09T09:22:03;29.40;44.00
47791;DHT22;33547;49.044;1.156;2022-09-09T09:27:35;29.20;44.50
47791;DHT22;33547;49.044;1.156;2022-09-09T09:30:15;29.30;44.60
47791;DHT22;33547;49.044;1.156;2022-09-09T09:32:55;29.70;44.10
47791;DHT22;33547;49.044;1.156;2022-09-09T09:35:22;30.10;43.20
47791;DHT22;33547;49.044;1.156;2022-09-09T09:37:48;30.30;42.90
47791;DHT22;33547;49.044;1.156;2022-09-09T09:40:19;30.50;42.50
47791;DHT22;33547;49.044;1.156;2022-09-09T09:42:58;30.50;42.30
47791;DHT22;33547;49.044;1.156;2022-09-09T09:45:41;30.50;42.50
47791;DHT22;33547;49.044;1.156;2022-09-09T09:48:11;30.70;42.00
47791;DHT22;33547;49.044;1.156;2022-09-09T09:50:50;30.50;42.20
47791;DHT22;33547;49.044;1.156;2022-09-09T09:53:32;30.30;42.40
47791;DHT22;33547;49.044;1.156;2022-09-09T09:56:00;30.00;42.80
47791;DHT22;33547;49.044;1.156;2022-09-09T09:58:49;29.80;43.20
47791;DHT22;33547;49.044;1.156;2022-09-09T10:03:51;29.40;43.80
47791;DHT22;33547;49.044;1.156;2022-09-09T10:06:37;29.20;44.20
47791;DHT22;33547;49.044;1.156;2022-09-09T10:09:27;29.00;44.50
47791;DHT22;33547;49.044;1.156;2022-09-09T10:15:05;28.70;44.90
47791;DHT22;33547;49.044;1.156;2022-09-09T10:21:03;28.40;45.50
47791;DHT22;33547;49.044;1.156;2022-09-09T10:26:38;28.00;46.10
47791;DHT22;33547;49.044;1.156;2022-09-09T10:33:00;27.70;46.60
47791;DHT22;33547;49.044;1.156;2022-09-09T10:38:17;27.30;47.40
47791;DHT22;33547;49.044;1.156;2022-09-09T10:46:57;26.80;48.80
47791;DHT22;33547;49.044;1.156;2022-09-09T10:57:37;26.20;50.10
47791;DHT22;33547;49.044;1.156;2022-09-09T11:00:15;26.00;50.50
47791;DHT22;33547;49.044;1.156;2022-09-09T11:03:12;25.90;51.00
47791;DHT22;33547;49.044;1.156;2022-09-09T11:08:29;25.70;51.80
47791;DHT22;33547;49.044;1.156;2022-09-09T11:10:59;25.70;51.70
47791;DHT22;33547;49.044;1.156;2022-09-09T11:13:46;25.60;52.00
47791;DHT22;33547;49.044;1.156;2022-09-09T11:19:03;25.40;52.30
47791;DHT22;33547;49.044;1.156;2022-09-09T11:21:38;25.30;52.60
47791;DHT22;33547;49.044;1.156;2022-09-09T11:24:35;25.20;52.90
47791;DHT22;33547;49.044;1.156;2022-09-09T11:41:15;24.90;53.70
47791;DHT22;33547;49.044;1.156;2022-09-09T11:46:22;24.80;54.00
47791;DHT22;33547;49.044;1.156;2022-09-09T11:49:01;24.80;54.00
47791;DHT22;33547;49.044;1.156;2022-09-09T11:51:30;24.70;53.90
47791;DHT22;33547;49.044;1.156;2022-09-09T11:54:21;24.80;53.80
47791;DHT22;33547;49.044;1.156;2022-09-09T11:56:58;25.00;53.50
47791;DHT22;33547;49.044;1.156;2022-09-09T11:59:25;27.30;51.30
47791;DHT22;33547;49.044;1.156;2022-09-09T12:07:49;32.80;41.70
47791;DHT22;33547;49.044;1.156;2022-09-09T12:10:35;32.90;39.90
47791;DHT22;33547;49.044;1.156;2022-09-09T12:13:28;32.40;40.00
47791;DHT22;33547;49.044;1.156;2022-09-09T12:15:58;31.90;40.80
47791;DHT22;33547;49.044;1.156;2022-09-09T12:18:32;31.80;41.20
47791;DHT22;33547;49.044;1.156;2022-09-09T12:21:36;32.00;40.90
47791;DHT22;33547;49.044;1.156;2022-09-09T12:24:09;32.30;40.50
47791;DHT22;33547;49.044;1.156;2022-09-09T12:26:43;32.70;39.90
47791;DHT22;33547;49.044;1.156;2022-09-09T12:32:15;32.80;39.40
47791;DHT22;33547;49.044;1.156;2022-09-09T12:34:56;32.40;39.60
47791;DHT22;33547;49.044;1.156;2022-09-09T12:38:06;32.20;40.00
47791;DHT22;33547;49.044;1.156;2022-09-09T12:40:30;31.80;40.40
47791;DHT22;33547;49.044;1.156;2022-09-09T12:43:01;31.70;40.70
47791;DHT22;33547;49.044;1.156;2022-09-09T12:45:31;31.70;40.90
47791;DHT22;33547;49.044;1.156;2022-09-09T12:48:10;31.70;40.90
47791;DHT22;33547;49.044;1.156;2022-09-09T12:50:49;31.80;40.80
47791;DHT22;33547;49.044;1.156;2022-09-09T12:56:04;31.10;41.70
47791;DHT22;33547;49.044;1.156;2022-09-09T12:58:36;30.50;42.50
47791;DHT22;33547;49.044;1.156;2022-09-09T13:01:04;30.00;43.30
47791;DHT22;33547;49.044;1.156;2022-09-09T13:03:32;29.50;43.90
47791;DHT22;33547;49.044;1.156;2022-09-09T13:06:12;29.10;44.90
47791;DHT22;33547;49.044;1.156;2022-09-09T13:08:39;28.80;45.40
47791;DHT22;33547;49.044;1.156;2022-09-09T13:11:26;28.70;45.70
47791;DHT22;33547;49.044;1.156;2022-09-09T13:14:16;28.70;45.90
47791;DHT22;33547;49.044;1.156;2022-09-09T13:16:57;29.00;45.20
47791;DHT22;33547;49.044;1.156;2022-09-09T13:19:25;28.90;45.20
47791;DHT22;33547;49.044;1.156;2022-09-09T13:21:54;29.00;44.80
47791;DHT22;33547;49.044;1.156;2022-09-09T13:24:34;29.00;44.60
47791;DHT22;33547;49.044;1.156;2022-09-09T13:27:01;29.10;44.80
47791;DHT22;33547;49.044;1.156;2022-09-09T13:29:30;29.10;44.60
47791;DHT22;33547;49.044;1.156;2022-09-09T13:32:27;29.30;44.80
47791;DHT22;33547;49.044;1.156;2022-09-09T13:34:54;29.90;44.00
47791;DHT22;33547;49.044;1.156;2022-09-09T13:37:36;30.80;43.50
47791;DHT22;33547;49.044;1.156;2022-09-09T13:40:05;32.00;42.00
47791;DHT22;33547;49.044;1.156;2022-09-09T13:42:34;32.40;40.20
47791;DHT22;33547;49.044;1.156;2022-09-09T13:45:03;31.60;40.50
47791;DHT22;33547;49.044;1.156;2022-09-09T13:47:36;30.90;41.60
47791;DHT22;33547;49.044;1.156;2022-09-09T13:50:22;31.80;40.70
47791;DHT22;33547;49.044;1.156;2022-09-09T13:52:54;33.60;40.00
47791;DHT22;33547;49.044;1.156;2022-09-09T13:55:22;37.40;35.30
47791;DHT22;33547;49.044;1.156;2022-09-09T14:00:19;35.20;35.50
47791;DHT22;33547;49.044;1.156;2022-09-09T14:02:46;33.80;37.10
47791;DHT22;33547;49.044;1.156;2022-09-09T14:05:13;32.80;38.70
47791;DHT22;33547;49.044;1.156;2022-09-09T14:07:40;31.90;40.10
47791;DHT22;33547;49.044;1.156;2022-09-09T14:10:08;31.10;41.10
47791;DHT22;33547;49.044;1.156;2022-09-09T14:12:34;30.50;42.30
47791;DHT22;33547;49.044;1.156;2022-09-09T14:15:05;29.90;43.20
47791;DHT22;33547;49.044;1.156;2022-09-09T14:17:31;29.50;44.20
47791;DHT22;33547;49.044;1.156;2022-09-09T14:19:58;29.00;44.90
47791;DHT22;33547;49.044;1.156;2022-09-09T14:22:24;28.60;45.00
47791;DHT22;33547;49.044;1.156;2022-09-09T14:24:51;28.20;46.00
47791;DHT22;33547;49.044;1.156;2022-09-09T14:27:17;28.00;46.10
47791;DHT22;33547;49.044;1.156;2022-09-09T14:29:44;27.80;46.70
47791;DHT22;33547;49.044;1.156;2022-09-09T14:32:10;27.60;47.10
47791;DHT22;33547;49.044;1.156;2022-09-09T14:34:36;27.60;47.10
47791;DHT22;33547;49.044;1.156;2022-09-09T14:37:02;27.70;47.40
47791;DHT22;33547;49.044;1.156;2022-09-09T14:39:28;27.80;47.20
47791;DHT22;33547;49.044;1.156;2022-09-09T14:41:55;27.90;46.90
47791;DHT22;33547;49.044;1.156;2022-09-09T14:44:20;28.00;46.70
47791;DHT22;33547;49.044;1.156;2022-09-09T14:46:47;28.30;46.10
47791;DHT22;33547;49.044;1.156;2022-09-09T14:49:15;28.30;46.10
47791;DHT22;33547;49.044;1.156;2022-09-09T14:51:42;28.30;46.40
47791;DHT22;33547;49.044;1.156;2022-09-09T14:54:07;28.30;46.60
47791;DHT22;33547;49.044;1.156;2022-09-09T14:56:34;28.10;46.70
47791;DHT22;33547;49.044;1.156;2022-09-09T14:59:00;28.10;47.10
47791;DHT22;33547;49.044;1.156;2022-09-09T15:01:27;29.20;46.40
47791;DHT22;33547;49.044;1.156;2022-09-09T15:03:59;31.60;42.00
47791;DHT22;33547;49.044;1.156;2022-09-09T15:06:30;30.40;42.50
47791;DHT22;33547;49.044;1.156;2022-09-09T15:08:59;29.70;44.10
47791;DHT22;33547;49.044;1.156;2022-09-09T15:11:30;29.10;45.10
47791;DHT22;33547;49.044;1.156;2022-09-09T15:13:58;28.80;46.00
47791;DHT22;33547;49.044;1.156;2022-09-09T15:16:27;28.40;46.70
47791;DHT22;33547;49.044;1.156;2022-09-09T15:18:55;28.20;47.10
47791;DHT22;33547;49.044;1.156;2022-09-09T15:21:24;28.00;47.50
47791;DHT22;33547;49.044;1.156;2022-09-09T15:23:52;27.90;47.90
47791;DHT22;33547;49.044;1.156;2022-09-09T15:26:19;28.00;48.00
47791;DHT22;33547;49.044;1.156;2022-09-09T15:28:46;28.40;47.00
47791;DHT22;33547;49.044;1.156;2022-09-09T15:31:21;28.60;46.80
47791;DHT22;33547;49.044;1.156;2022-09-09T15:33:54;28.80;46.50
47791;DHT22;33547;49.044;1.156;2022-09-09T15:36:38;28.60;46.70
47791;DHT22;33547;49.044;1.156;2022-09-09T15:39:07;28.30;47.10
47791;DHT22;33547;49.044;1.156;2022-09-09T15:41:38;27.90;47.80
47791;DHT22;33547;49.044;1.156;2022-09-09T15:44:04;28.20;47.80
47791;DHT22;33547;49.044;1.156;2022-09-09T15:46:36;28.50;47.00
47791;DHT22;33547;49.044;1.156;2022-09-09T15:49:17;28.50;46.70
47791;DHT22;33547;49.044;1.156;2022-09-09T15:51:46;28.80;46.30
47791;DHT22;33547;49.044;1.156;2022-09-09T15:54:15;28.70;46.30
47791;DHT22;33547;49.044;1.156;2022-09-09T15:56:43;29.30;46.00
47791;DHT22;33547;49.044;1.156;2022-09-09T15:59:09;28.90;45.90
47791;DHT22;33547;49.044;1.156;2022-09-09T16:01:35;28.40;46.80
47791;DHT22;33547;49.044;1.156;2022-09-09T16:04:01;28.00;47.60
47791;DHT22;33547;49.044;1.156;2022-09-09T16:06:28;27.90;48.10
47791;DHT22;33547;49.044;1.156;2022-09-09T16:08:56;27.80;48.30
47791;DHT22;33547;49.044;1.156;2022-09-09T16:11:26;27.50;48.70
47791;DHT22;33547;49.044;1.156;2022-09-09T16:13:54;27.30;49.20
47791;DHT22;33547;49.044;1.156;2022-09-09T16:16:23;27.20;49.40
47791;DHT22;33547;49.044;1.156;2022-09-09T16:18:52;28.90;47.20
47791;DHT22;33547;49.044;1.156;2022-09-09T16:21:27;29.40;45.10
47791;DHT22;33547;49.044;1.156;2022-09-09T16:23:59;28.80;46.10
47791;DHT22;33547;49.044;1.156;2022-09-09T16:26:28;28.20;47.30
47791;DHT22;33547;49.044;1.156;2022-09-09T16:28:59;27.80;48.20
47791;DHT22;33547;49.044;1.156;2022-09-09T16:31:26;27.50;48.80
47791;DHT22;33547;49.044;1.156;2022-09-09T16:33:53;27.30;49.00
47791;DHT22;33547;49.044;1.156;2022-09-09T16:36:22;27.30;49.30
47791;DHT22;33547;49.044;1.156;2022-09-09T16:38:52;27.10;49.40
47791;DHT22;33547;49.044;1.156;2022-09-09T16:41:20;26.90;49.80
47791;DHT22;33547;49.044;1.156;2022-09-09T16:43:52;26.90;49.60
47791;DHT22;33547;49.044;1.156;2022-09-09T16:46:19;26.80;49.80
47791;DHT22;33547;49.044;1.156;2022-09-09T16:48:47;26.90;49.80
47791;DHT22;33547;49.044;1.156;2022-09-09T16:51:20;27.00;49.80
47791;DHT22;33547;49.044;1.156;2022-09-09T16:53:49;26.80;49.80
47791;DHT22;33547;49.044;1.156;2022-09-09T16:56:19;26.50;50.40
47791;DHT22;33547;49.044;1.156;2022-09-09T16:58:51;26.50;50.60
47791;DHT22;33547;49.044;1.156;2022-09-09T17:01:22;26.30;50.80
47791;DHT22;33547;49.044;1.156;2022-09-09T17:03:55;26.20;52.00
47791;DHT22;33547;49.044;1.156;2022-09-09T17:06:23;26.00;51.50
47791;DHT22;33547;49.044;1.156;2022-09-09T17:08:57;26.00;51.80
47791;DHT22;33547;49.044;1.156;2022-09-09T17:11:24;25.90;52.10
47791;DHT22;33547;49.044;1.156;2022-09-09T17:13:52;25.90;52.00
47791;DHT22;33547;49.044;1.156;2022-09-09T17:16:20;25.70;52.50
47791;DHT22;33547;49.044;1.156;2022-09-09T17:18:50;25.60;52.90
47791;DHT22;33547;49.044;1.156;2022-09-09T17:21:20;25.30;53.30
47791;DHT22;33547;49.044;1.156;2022-09-09T17:23:47;25.30;53.00
47791;DHT22;33547;49.044;1.156;2022-09-09T17:26:15;25.20;53.30
47791;DHT22;33547;49.044;1.156;2022-09-09T17:28:42;25.20;53.60
47791;DHT22;33547;49.044;1.156;2022-09-09T17:31:10;25.20;54.00
47791;DHT22;33547;49.044;1.156;2022-09-09T17:33:39;25.10;54.40
47791;DHT22;33547;49.044;1.156;2022-09-09T17:38:42;24.90;55.60
47791;DHT22;33547;49.044;1.156;2022-09-09T17:41:17;24.80;55.70
47791;DHT22;33547;49.044;1.156;2022-09-09T17:44:03;24.70;56.00
47791;DHT22;33547;49.044;1.156;2022-09-09T17:46:32;24.70;56.20
47791;DHT22;33547;49.044;1.156;2022-09-09T17:49:03;24.60;56.40
47791;DHT22;33547;49.044;1.156;2022-09-09T17:51:31;24.50;56.70
47791;DHT22;33547;49.044;1.156;2022-09-09T17:54:00;24.50;56.60
47791;DHT22;33547;49.044;1.156;2022-09-09T17:56:35;24.40;57.50
47791;DHT22;33547;49.044;1.156;2022-09-09T17:59:03;24.30;58.10
47791;DHT22;33547;49.044;1.156;2022-09-09T18:01:33;24.20;58.50
47791;DHT22;33547;49.044;1.156;2022-09-09T18:04:03;24.20;59.10
47791;DHT22;33547;49.044;1.156;2022-09-09T18:06:36;24.10;58.50
47791;DHT22;33547;49.044;1.156;2022-09-09T18:09:05;24.00;58.50
47791;DHT22;33547;49.044;1.156;2022-09-09T18:11:37;24.00;58.80
47791;DHT22;33547;49.044;1.156;2022-09-09T18:14:29;23.90;58.90
47791;DHT22;33547;49.044;1.156;2022-09-09T18:16:57;23.80;59.40
47791;DHT22;33547;49.044;1.156;2022-09-09T18:19:26;23.80;59.20
47791;DHT22;33547;49.044;1.156;2022-09-09T18:21:55;23.70;59.20
47791;DHT22;33547;49.044;1.156;2022-09-09T18:24:22;23.60;59.30
47791;DHT22;33547;49.044;1.156;2022-09-09T18:26:49;23.50;60.10
47791;DHT22;33547;49.044;1.156;2022-09-09T18:29:17;23.40;59.70
47791;DHT22;33547;49.044;1.156;2022-09-09T18:31:46;23.30;59.70
47791;DHT22;33547;49.044;1.156;2022-09-09T18:34:14;23.30;59.80
47791;DHT22;33547;49.044;1.156;2022-09-09T18:36:49;23.20;59.80